Time;durP1;ratioP1;P1;durP2;ratioP2;P2;SDS_P1;SDS_P2;PMS_P1;PMS_P2;Temp;Humidity;BMP_temperature;BMP_pressure;BME280_temperature;BME280_humidity;BME280_pressure;Samples;Min_cycle;Max_cycle;Signal;HPM_P1;HPM_P2
2022/10/02 03:02:04;;;;;;;19.40;3.38;;;;;;;9.54;69.63;100564.25;5724019;23;20054;-72
2022/10/02 03:04:30;;;;;;;31.20;3.53;;;;;;;9.44;69.66;100565.31;4980524;28;20846;-73
2022/10/02 03:07:01;;;;;;;21.60;3.22;;;;;;;9.54;69.44;100561.56;4991839;28;20046;-72
2022/10/02 03:09:32;;;;;;;13.93;3.15;;;;;;;9.37;69.93;100565.13;4994016;28;20043;-73
2022/10/02 03:12:12;;;;;;;;;;;;;;;9.52;69.55;100566.25;4994002;28;20468;-73
2022/10/02 03:14:38;;;;;;;20.42;3.30;;;;;;;9.46;69.52;100572.22;4992787;28;19928;-73
2022/10/02 03:17:23;;;;;;;21.35;3.28;;;;;;;9.43;69.17;100572.53;4987643;28;20050;-73
2022/10/02 03:20:01;;;;;;;22.48;3.08;;;;;;;9.38;69.86;100574.84;4970257;28;20508;-72
2022/10/02 03:22:59;;;;;;;20.02;2.90;;;;;;;9.41;69.65;100577.22;4973572;28;20078;-73
2022/10/02 03:25:40;;;;;;;18.17;3.08;;;;;;;9.34;69.90;100581.50;4973185;28;20061;-73
2022/10/02 03:28:17;;;;;;;20.73;3.85;;;;;;;9.30;69.93;100574.75;4973176;28;20387;-73
2022/10/02 03:31:04;;;;;;;15.30;2.90;;;;;;;9.32;70.04;100573.63;4972487;28;20171;-74
2022/10/02 03:33:34;;;;;;;19.70;3.90;;;;;;;9.19;70.28;100583.84;4972226;28;20061;-74
2022/10/02 03:36:01;;;;;;;19.30;2.78;;;;;;;9.25;70.24;100579.75;4972278;28;20061;-73
2022/10/02 03:38:28;;;;;;;22.23;3.28;;;;;;;9.26;69.98;100578.75;4992015;28;20054;-73
2022/10/02 03:41:01;;;;;;;21.30;3.13;;;;;;;9.16;70.44;100575.28;5025910;27;20754;-73
2022/10/02 03:43:29;;;;;;;23.67;3.33;;;;;;;9.18;70.25;100579.50;5029376;28;20389;-74
2022/10/02 03:45:56;;;;;;;18.40;2.90;;;;;;;9.24;70.50;100576.25;5029065;28;20077;-73
2022/10/02 03:48:23;;;;;;;16.58;3.05;;;;;;;9.31;69.88;100581.81;5028897;28;20057;-72
2022/10/02 03:50:49;;;;;;;16.58;2.78;;;;;;;9.13;70.38;100578.28;5029083;28;20049;-72
2022/10/02 03:53:21;;;;;;;20.10;2.92;;;;;;;9.23;70.15;100579.03;5028956;28;20526;-72
2022/10/02 03:56:26;;;;;;;22.80;3.83;;;;;;;9.12;70.56;100580.09;5028980;28;20472;-72
2022/10/02 03:58:58;;;;;;;15.73;2.97;;;;;;;8.98;71.06;100583.34;5028672;28;20046;-72
2022/10/02 04:01:35;;;;;;;19.30;3.10;;;;;;;8.89;71.66;100579.75;5028723;28;20061;-72
2022/10/02 04:04:13;;;;;;;23.25;3.75;;;;;;;8.96;71.18;100571.97;5009921;28;20061;-73
2022/10/02 04:06:50;;;;;;;23.15;3.30;;;;;;;8.99;71.43;100569.81;5005229;28;20080;-73
2022/10/02 04:09:28;;;;;;;20.08;3.45;;;;;;;9.09;70.95;100575.06;5000259;28;20046;-73
2022/10/02 04:12:08;;;;;;;16.40;3.05;;;;;;;9.00;71.00;100578.69;5023084;28;20058;-74
2022/10/02 04:14:43;;;;;;;19.58;2.72;;;;;;;9.23;70.50;100573.66;5008552;28;20512;-73
2022/10/02 04:17:28;;;;;;;25.13;3.05;;;;;;;9.15;70.57;100585.16;5008898;28;20073;-73
2022/10/02 04:20:02;;;;;;;15.57;2.65;;;;;;;9.18;70.22;100584.84;5007453;28;20046;-72
2022/10/02 04:22:41;;;;;;;27.55;3.60;;;;;;;8.98;70.80;100581.50;5008542;28;20042;-72
2022/10/02 04:25:19;;;;;;;20.70;2.88;;;;;;;8.95;70.96;100584.47;5008511;28;20049;-68
2022/10/02 04:28:18;;;;;;;19.10;3.05;;;;;;;9.12;70.81;100598.00;4992070;28;20054;-68
2022/10/02 04:30:45;;;;;;;28.98;3.70;;;;;;;9.44;69.75;100594.78;4988567;28;20056;-83
2022/10/02 04:33:19;;;;;;;17.33;2.90;;;;;;;9.35;70.02;100598.41;4987559;28;20402;-71
2022/10/02 04:36:00;;;;;;;13.48;2.92;;;;;;;9.37;69.83;100589.25;4986940;28;20054;-69
2022/10/02 04:38:42;;;;;;;14.57;2.47;;;;;;;9.34;70.04;100592.22;4988321;28;20047;-70
2022/10/02 04:41:36;;;;;;;24.05;3.30;;;;;;;9.35;70.02;100593.06;4987614;28;20051;-83
2022/10/02 04:44:24;;;;;;;22.98;3.60;;;;;;;9.27;70.06;100597.34;4993445;28;20038;-68
2022/10/02 04:47:02;;;;;;;30.42;2.75;;;;;;;9.41;69.63;100595.13;5023650;28;20079;-69
2022/10/02 04:49:41;;;;;;;15.55;2.67;;;;;;;9.41;69.43;100593.28;5008128;28;20042;-69
2022/10/02 04:52:36;;;;;;;14.93;3.25;;;;;;;9.39;69.70;100600.63;4996258;28;20061;-69
2022/10/02 04:55:30;;;;;;;11.93;2.65;;;;;;;9.40;69.36;100601.44;4994046;28;20077;-69
2022/10/02 04:58:20;;;;;;;24.65;5.82;;;;;;;9.53;69.01;100608.09;4987746;28;20050;-69
2022/10/02 05:00:58;;;;;;;16.73;3.30;;;;;;;9.55;69.02;100600.75;4995310;28;20049;-69
2022/10/02 05:03:27;;;;;;;17.27;3.65;;;;;;;9.54;69.07;100603.56;4994557;28;20074;-68
2022/10/02 05:06:21;;;;;;;17.52;3.17;;;;;;;9.62;68.84;100594.78;4994401;28;20064;-70
2022/10/02 05:08:48;;;;;;;13.55;2.50;;;;;;;9.57;68.45;100593.38;4994306;28;20046;-68
2022/10/02 05:11:17;;;;;;;17.60;2.72;;;;;;;9.79;68.29;100594.72;4994772;28;20133;-70
2022/10/02 05:14:16;;;;;;;15.77;2.65;;;;;;;9.69;68.41;100601.19;4994800;28;20134;-69
2022/10/02 05:17:02;;;;;;;17.10;2.35;;;;;;;9.86;67.70;100596.75;4972368;28;20149;-72
2022/10/02 05:20:24;;;;;;;11.40;2.30;;;;;;;9.65;67.98;100605.16;4960841;28;20046;-70
2022/10/02 05:23:11;;;;;;;11.47;2.47;;;;;;;9.68;68.23;100613.72;4953530;29;20047;-70
2022/10/02 05:26:02;;;;;;;9.48;1.95;;;;;;;9.80;67.83;100614.31;4948800;29;20639;-68
2022/10/02 05:28:47;;;;;;;12.55;2.78;;;;;;;9.63;68.17;100602.63;4952438;29;20491;-69
2022/10/02 05:31:25;;;;;;;17.38;2.85;;;;;;;9.61;68.46;100619.84;4953661;29;20066;-71
2022/10/02 05:34:16;;;;;;;10.50;2.10;;;;;;;9.75;68.02;100617.47;4952567;29;20051;-70
2022/10/02 05:36:52;;;;;;;14.07;2.53;;;;;;;9.68;68.47;100616.41;4953070;29;20058;-69
2022/10/02 05:39:32;;;;;;;14.57;2.78;;;;;;;9.60;68.38;100618.19;4952892;29;20522;-68
2022/10/02 05:42:04;;;;;;;13.55;2.17;;;;;;;9.69;68.34;100627.97;4953916;29;20511;-69
2022/10/02 05:44:38;;;;;;;16.50;3.20;;;;;;;9.69;68.41;100617.25;4954096;29;20051;-70
2022/10/02 05:47:14;;;;;;;16.08;2.50;;;;;;;9.65;68.83;100624.75;4952702;29;20043;-70
2022/10/02 05:49:51;;;;;;;13.73;2.60;;;;;;;9.64;68.78;100619.53;4952360;29;20483;-68
2022/10/02 05:52:25;;;;;;;15.85;3.55;;;;;;;10.02;67.96;100629.81;4953665;29;20436;-69
2022/10/02 05:55:15;;;;;;;13.90;2.45;;;;;;;10.21;67.45;100644.03;4953120;29;20514;-69
2022/10/02 05:57:47;;;;;;;11.73;2.55;;;;;;;10.11;67.48;100637.94;4998706;28;20050;-69
2022/10/02 06:00:39;;;;;;;10.63;2.83;;;;;;;10.42;66.97;100647.13;4994569;28;20370;-71
2022/10/02 06:03:18;;;;;;;12.98;2.53;;;;;;;10.50;67.13;100644.50;4991529;28;20046;-69
2022/10/02 06:05:48;;;;;;;15.07;3.08;;;;;;;10.16;68.42;100638.28;4993277;28;20046;-68
2022/10/02 06:08:20;;;;;;;15.70;2.72;;;;;;;10.41;68.51;100647.28;4993751;28;20056;-69
2022/10/02 06:10:53;;;;;;;;;;;;;;;10.31;69.37;100647.44;4994340;28;20379;-69
2022/10/02 06:13:29;;;;;;;12.68;2.70;;;;;;;10.35;69.50;100643.41;4993247;28;19921;-69
2022/10/02 06:16:09;;;;;;;22.70;4.97;;;;;;;10.28;70.00;100647.75;4988640;28;20054;-68
2022/10/02 06:18:38;;;;;;;14.13;3.72;;;;;;;10.19;70.12;100648.69;4993562;28;20531;-68
2022/10/02 06:21:09;;;;;;;19.38;3.50;;;;;;;10.39;69.68;100650.13;4992564;28;20521;-69
2022/10/02 06:23:45;;;;;;;20.40;3.63;;;;;;;10.46;69.67;100651.16;4993390;28;20046;-75
2022/10/02 06:26:27;;;;;;;15.50;2.83;;;;;;;10.35;70.08;100650.63;4993659;28;20516;-69
2022/10/02 06:29:21;;;;;;;20.30;2.83;;;;;;;10.49;69.89;100645.47;4993100;28;20050;-69
2022/10/02 06:32:07;;;;;;;19.25;2.92;;;;;;;10.62;69.66;100653.13;4992974;28;20453;-68
2022/10/02 06:34:34;;;;;;;16.48;3.17;;;;;;;10.62;69.21;100649.59;4992757;28;21651;-68
2022/10/02 06:37:21;;;;;;;15.70;3.05;;;;;;;10.44;70.09;100647.81;4992075;28;20070;-70
2022/10/02 06:40:06;;;;;;;12.25;2.75;;;;;;;10.49;69.86;100661.56;4990765;28;20408;-67
2022/10/02 06:42:48;;;;;;;11.50;2.90;;;;;;;10.38;70.50;100653.00;4993329;28;20053;-63
2022/10/02 06:45:46;;;;;;;14.02;3.25;;;;;;;10.65;69.25;100655.47;4994613;28;20046;-67
2022/10/02 06:48:28;;;;;;;16.33;3.03;;;;;;;10.71;69.09;100654.81;4989431;28;20054;-63
2022/10/02 06:51:07;;;;;;;19.67;3.30;;;;;;;10.72;69.06;100658.31;4993182;28;20058;-64
2022/10/02 06:53:41;;;;;;;17.45;3.47;;;;;;;10.40;69.93;100649.13;4993820;28;20048;-63
2022/10/02 06:56:29;;;;;;;16.88;4.40;;;;;;;10.99;68.56;100650.00;4992511;28;20054;-72
2022/10/02 06:59:13;;;;;;;17.63;3.42;;;;;;;11.01;67.67;100649.03;4992761;28;20046;-70
2022/10/02 07:01:45;;;;;;;17.02;3.47;;;;;;;11.42;66.33;100641.88;4992567;28;20042;-70
2022/10/02 07:04:41;;;;;;;12.30;2.65;;;;;;;10.86;67.55;100638.94;4992984;28;20046;-69
2022/10/02 07:07:13;;;;;;;17.23;2.80;;;;;;;11.60;65.48;100644.38;4990885;28;20484;-69
2022/10/02 07:09:50;;;;;;;17.48;3.38;;;;;;;12.75;62.24;100643.06;4992912;28;20046;-69
2022/10/02 07:12:34;;;;;;;13.25;2.35;;;;;;;13.44;60.25;100644.97;4992467;28;20046;-65
2022/10/02 07:15:24;;;;;;;18.40;3.55;;;;;;;14.10;58.68;100632.59;4991433;28;20050;-64
2022/10/02 07:18:02;;;;;;;10.98;2.50;;;;;;;14.03;57.62;100637.88;4993002;28;20160;-63
2022/10/02 07:20:40;;;;;;;19.90;4.22;;;;;;;13.75;57.50;100636.78;4994059;28;20065;-64
2022/10/02 07:23:44;;;;;;;15.70;3.75;;;;;;;14.99;55.06;100646.00;4993358;28;20046;-64
2022/10/02 07:26:14;;;;;;;12.43;2.53;;;;;;;15.53;52.71;100656.28;4994078;28;20405;-63
2022/10/02 07:28:55;;;;;;;17.75;2.80;;;;;;;15.51;53.00;100649.41;4994524;28;20038;-63
2022/10/02 07:31:40;;;;;;;14.20;3.20;;;;;;;15.22;53.33;100654.78;4994076;28;20050;-65
2022/10/02 07:34:19;;;;;;;18.00;3.20;;;;;;;15.60;52.30;100653.63;4994104;28;20035;-63
2022/10/02 07:37:05;;;;;;;15.05;3.13;;;;;;;15.17;52.98;100656.38;4993781;28;20053;-63
2022/10/02 07:40:10;;;;;;;14.65;2.85;;;;;;;14.68;54.24;100654.31;4994283;28;20051;-63
2022/10/02 07:42:54;;;;;;;10.32;2.88;;;;;;;15.23;53.78;100648.31;4993343;28;20042;-63
2022/10/02 07:45:32;;;;;;;14.05;3.10;;;;;;;15.98;50.99;100669.56;4993880;28;20386;-64
2022/10/02 07:48:05;;;;;;;13.50;2.95;;;;;;;15.77;51.11;100662.34;4993823;28;20058;-64
2022/10/02 07:50:48;;;;;;;16.98;4.78;;;;;;;14.81;52.97;100662.63;4992856;28;20043;-63
2022/10/02 07:53:37;;;;;;;17.95;3.53;;;;;;;14.93;53.70;100671.06;4993458;28;20042;-62
2022/10/02 07:56:07;;;;;;;24.42;3.75;;;;;;;14.79;53.54;100671.94;4974307;28;20066;-65
2022/10/02 07:58:43;;;;;;;19.52;3.78;;;;;;;14.44;54.70;100666.28;4973695;28;20051;-64
2022/10/02 08:01:16;;;;;;;15.75;3.20;;;;;;;15.14;53.70;100673.78;4972094;28;20053;-65
2022/10/02 08:03:49;;;;;;;13.95;3.75;;;;;;;16.43;50.27;100677.16;4972735;28;20097;-64
2022/10/02 08:06:17;;;;;;;18.63;3.97;;;;;;;15.95;50.44;100673.50;4974093;28;20398;-64
2022/10/02 08:08:59;;;;;;;21.48;5.03;;;;;;;15.71;51.55;100675.63;4975174;28;20047;-64
2022/10/02 08:11:30;;;;;;;23.45;7.05;;;;;;;15.62;52.01;100668.66;4982886;28;20054;-64
2022/10/02 08:14:21;;;;;;;19.38;4.53;;;;;;;15.62;51.93;100663.25;4986991;28;20057;-64
2022/10/02 08:16:50;;;;;;;18.58;3.80;;;;;;;15.52;52.18;100657.31;4988635;28;20050;-64
2022/10/02 08:19:33;;;;;;;18.38;3.50;;;;;;;16.09;50.71;100667.19;4973394;28;20062;-64
2022/10/02 08:22:08;;;;;;;18.13;4.30;;;;;;;17.09;48.76;100668.53;4973281;28;20061;-65
2022/10/02 08:24:39;;;;;;;13.25;3.58;;;;;;;16.88;48.38;100664.03;4973706;28;20049;-64
2022/10/02 08:27:32;;;;;;;15.82;3.75;;;;;;;16.18;49.90;100665.97;4975416;28;20054;-64
2022/10/02 08:30:05;;;;;;;17.73;3.42;;;;;;;15.86;50.63;100663.88;4994186;28;20042;-64
2022/10/02 08:32:35;;;;;;;20.88;4.88;;;;;;;16.02;50.85;100663.59;4997297;28;20042;-64
2022/10/02 08:35:11;;;;;;;18.65;4.10;;;;;;;16.03;50.83;100659.00;4996605;28;20050;-64
2022/10/02 08:37:50;;;;;;;17.08;3.90;;;;;;;16.59;49.55;100667.91;4995697;28;20046;-65
2022/10/02 08:40:53;;;;;;;18.90;4.15;;;;;;;15.98;50.36;100656.88;4993330;28;20057;-64
2022/10/02 08:43:52;;;;;;;16.08;3.72;;;;;;;16.29;49.80;100659.16;4997260;28;20046;-65
2022/10/02 08:46:28;;;;;;;19.65;4.43;;;;;;;16.48;49.70;100662.19;4997856;28;20042;-68
2022/10/02 08:49:24;;;;;;;22.83;4.55;;;;;;;15.79;51.58;100657.59;4997420;28;20138;-64
2022/10/02 08:52:23;;;;;;;18.05;4.22;;;;;;;15.43;52.52;100647.66;4992344;28;20054;-69
2022/10/02 08:55:03;;;;;;;17.15;3.58;;;;;;;15.46;52.55;100653.50;4996012;28;20042;-71
2022/10/02 08:57:48;;;;;;;19.25;4.60;;;;;;;14.75;54.75;100641.78;4991464;28;20052;-70
2022/10/02 09:00:38;;;;;;;16.55;3.65;;;;;;;15.26;53.51;100649.81;4995358;28;20125;-72
2022/10/02 09:03:24;;;;;;;18.77;3.67;;;;;;;15.82;51.75;100652.63;4994927;28;20053;-73
2022/10/02 09:06:02;;;;;;;21.45;5.18;;;;;;;15.46;53.22;100649.97;4993795;28;20568;-71
2022/10/02 09:08:50;;;;;;;19.85;4.75;;;;;;;14.58;54.82;100648.38;4995237;28;20050;-71
2022/10/02 09:11:36;;;;;;;15.27;4.05;;;;;;;14.67;54.82;100656.19;4994338;28;20046;-71
2022/10/02 09:14:32;;;;;;;18.38;3.92;;;;;;;14.73;54.73;100660.84;4994672;28;20413;-72
2022/10/02 09:17:14;;;;;;;16.58;3.80;;;;;;;14.66;54.64;100654.50;4995200;28;20061;-73
2022/10/02 09:19:43;;;;;;;;;;;;;;;14.73;54.50;100658.16;4995849;28;20440;-72
2022/10/02 09:22:22;;;;;;;12.10;3.95;;;;;;;14.84;54.53;100656.00;4994942;28;19930;-73
2022/10/02 09:25:08;;;;;;;20.30;5.18;;;;;;;14.93;54.38;100658.38;4994737;28;20043;-71
2022/10/02 09:27:57;;;;;;;16.33;4.25;;;;;;;14.42;55.38;100661.03;4992964;28;20412;-72
2022/10/02 09:30:33;;;;;;;17.02;4.55;;;;;;;14.63;55.19;100662.13;4994409;28;20117;-72
2022/10/02 09:33:55;;;;;;;22.70;5.78;;;;;;;15.37;53.36;100656.56;4993745;28;20494;-74
2022/10/02 09:37:09;;;;;;;18.83;4.50;;;;;;;16.86;49.66;100657.19;4994000;28;20050;-71
2022/10/02 09:39:50;;;;;;;20.65;4.65;;;;;;;17.82;47.33;100641.50;4957419;28;20050;-72
2022/10/02 09:42:48;;;;;;;22.45;4.10;;;;;;;17.22;47.98;100642.47;4974115;28;20047;-72
2022/10/02 09:45:44;;;;;;;19.40;3.75;;;;;;;17.41;47.25;100649.84;4978114;28;20047;-68
2022/10/02 09:48:44;;;;;;;17.38;3.42;;;;;;;17.67;46.07;100637.31;4976186;28;20078;-65
2022/10/02 09:51:23;;;;;;;12.48;3.30;;;;;;;16.79;47.74;100631.94;4976019;28;20047;-65
2022/10/02 09:54:20;;;;;;;11.68;3.03;;;;;;;17.05;47.23;100623.03;4976155;28;20049;-64
2022/10/02 09:57:30;;;;;;;24.17;5.32;;;;;;;17.26;46.61;100638.28;4975448;28;20133;-64
2022/10/02 10:00:40;;;;;;;16.40;4.45;;;;;;;16.54;48.62;100642.44;4975625;28;20501;-66
2022/10/02 10:03:28;;;;;;;22.35;5.07;;;;;;;16.43;48.96;100630.28;4972287;28;20055;-63
2022/10/02 10:06:13;;;;;;;13.52;3.15;;;;;;;16.90;48.03;100631.34;4974186;28;20053;-62
2022/10/02 10:08:59;;;;;;;16.63;3.60;;;;;;;16.60;48.48;100641.66;4975462;28;20047;-65
2022/10/02 10:11:55;;;;;;;18.83;3.70;;;;;;;15.86;50.82;100642.25;4975795;28;20042;-64
2022/10/02 10:14:41;;;;;;;13.00;3.10;;;;;;;15.38;53.42;100648.25;4975834;28;20513;-63
2022/10/02 10:17:27;;;;;;;22.02;4.00;;;;;;;14.88;55.71;100641.09;4975907;28;20512;-64
2022/10/02 10:20:35;;;;;;;22.70;3.65;;;;;;;14.49;57.20;100656.56;4974649;28;20054;-63
2022/10/02 10:23:19;;;;;;;16.27;3.70;;;;;;;14.44;58.17;100656.31;4972469;28;20483;-66
2022/10/02 10:25:57;;;;;;;17.88;4.20;;;;;;;14.14;59.94;100649.22;4972447;28;20042;-63
2022/10/02 10:28:51;;;;;;;22.50;4.32;;;;;;;13.72;62.44;100629.91;4973264;28;20101;-65
2022/10/02 10:32:10;;;;;;;17.02;3.67;;;;;;;13.86;62.55;100654.41;4972722;28;20054;-64
2022/10/02 10:35:14;;;;;;;17.70;3.80;;;;;;;13.96;62.62;100647.72;4915965;29;20055;-69
2022/10/02 10:38:37;;;;;;;17.83;3.55;;;;;;;14.10;61.90;100648.75;4912820;29;20048;-70
2022/10/02 10:41:24;;;;;;;13.35;3.67;;;;;;;13.91;62.63;100652.00;4857330;29;20053;-68
2022/10/02 10:44:15;;;;;;;11.23;3.20;;;;;;;14.89;60.64;100646.31;4856492;29;20061;-69
2022/10/02 10:46:59;;;;;;;10.45;3.83;;;;;;;15.58;59.06;100643.03;4856286;29;20459;-70
2022/10/02 10:49:34;;;;;;;15.80;4.28;;;;;;;15.47;59.36;100647.09;4855329;29;20113;-69
2022/10/02 10:52:28;;;;;;;13.02;4.53;;;;;;;15.68;58.99;100645.44;4841041;29;20064;-67
2022/10/02 10:55:06;;;;;;;15.63;4.32;;;;;;;16.19;57.34;100656.84;4851986;29;20061;-68
2022/10/02 10:57:50;;;;;;;14.43;4.05;;;;;;;17.07;56.15;100658.91;4850739;29;20112;-68
2022/10/02 11:00:24;;;;;;;12.85;3.50;;;;;;;17.23;54.91;100654.97;4856764;29;20053;-67
2022/10/02 11:03:04;;;;;;;11.02;3.63;;;;;;;16.57;54.91;100653.72;4856169;29;20052;-67
2022/10/02 11:05:51;;;;;;;15.30;3.97;;;;;;;17.29;53.84;100646.84;4855877;29;20045;-68
2022/10/02 11:08:37;;;;;;;12.90;3.50;;;;;;;17.85;51.87;100634.78;4855709;29;20052;-68
2022/10/02 11:11:26;;;;;;;11.90;3.40;;;;;;;17.06;53.68;100640.94;4863618;29;20053;-66
2022/10/02 11:14:20;;;;;;;15.38;3.65;;;;;;;17.11;53.53;100642.03;4884139;28;20049;-67
2022/10/02 11:17:10;;;;;;;13.07;3.47;;;;;;;15.97;56.58;100644.41;4952183;28;20063;-65
2022/10/02 11:19:54;;;;;;;16.88;4.75;;;;;;;15.87;57.01;100647.44;4952474;28;20050;-68
2022/10/02 11:23:08;;;;;;;17.52;3.90;;;;;;;15.46;57.63;100660.78;4951745;28;20114;-66
2022/10/02 11:25:53;;;;;;;14.13;3.67;;;;;;;14.51;61.44;100651.81;4938178;28;20051;-66
2022/10/02 11:28:41;;;;;;;12.07;4.28;;;;;;;14.47;61.62;100650.53;4948852;28;20047;-68
2022/10/02 11:31:28;;;;;;;18.92;4.13;;;;;;;14.44;61.43;100653.59;4948942;28;20051;-67
2022/10/02 11:33:56;;;;;;;16.35;4.60;;;;;;;14.42;61.37;100644.00;4948195;28;20086;-67
2022/10/02 11:36:25;;;;;;;10.52;3.83;;;;;;;14.15;61.65;100646.38;4948754;28;20055;-68
2022/10/02 11:39:23;;;;;;;11.20;3.40;;;;;;;13.89;61.87;100635.16;4949582;28;20047;-68
2022/10/02 11:42:18;;;;;;;13.68;4.28;;;;;;;14.87;60.51;100642.09;4968313;28;20054;-67
2022/10/02 11:44:57;;;;;;;19.10;4.20;;;;;;;16.13;57.50;100649.50;4967311;28;20047;-67
2022/10/02 11:47:45;;;;;;;10.75;3.72;;;;;;;17.95;51.73;100648.75;4968532;28;20057;-68
2022/10/02 11:50:24;;;;;;;10.23;3.13;;;;;;;19.02;50.67;100647.41;4968485;28;20050;-68
2022/10/02 11:53:03;;;;;;;11.07;3.20;;;;;;;20.77;45.41;100648.38;4969269;28;20051;-68
2022/10/02 11:55:43;;;;;;;5.55;1.90;;;;;;;22.39;40.61;100648.06;4970548;28;20042;-68
2022/10/02 11:58:18;;;;;;;9.65;2.30;;;;;;;22.81;39.94;100647.88;4969120;28;20506;-68
2022/10/02 12:01:31;;;;;;;6.07;2.28;;;;;;;22.87;39.05;100635.94;4971541;28;20438;-68
2022/10/02 12:04:24;;;;;;;7.32;2.55;;;;;;;24.00;36.49;100637.91;4973661;28;20074;-67
2022/10/02 12:07:00;;;;;;;7.93;2.15;;;;;;;23.46;36.92;100649.34;4975721;28;20391;-67
2022/10/02 12:09:34;;;;;;;9.80;2.50;;;;;;;22.61;38.23;100647.47;4976126;28;20135;-66
2022/10/02 12:12:23;;;;;;;7.22;2.25;;;;;;;21.76;39.77;100635.97;4972175;28;20055;-66
2022/10/02 12:15:08;;;;;;;10.43;3.03;;;;;;;20.77;42.71;100648.38;4976605;28;20129;-67
2022/10/02 12:17:54;;;;;;;12.52;3.60;;;;;;;19.77;45.43;100637.69;4977285;28;20077;-66
2022/10/02 12:27:01;;;;;;;12.68;3.10;;;;;;;18.64;47.72;100643.81;4976630;28;20090;-68
2022/10/02 12:29:52;;;;;;;11.40;2.78;;;;;;;18.73;46.95;100639.81;4975915;28;20051;-66
2022/10/02 12:32:36;;;;;;;9.13;2.67;;;;;;;20.61;43.93;100649.81;4976628;28;20133;-67
2022/10/02 12:35:31;;;;;;;11.10;2.63;;;;;;;22.13;39.77;100654.03;4976380;28;20043;-67
2022/10/02 12:38:14;;;;;;;12.50;3.35;;;;;;;21.90;41.49;100646.69;4976790;28;20125;-67
2022/10/02 12:41:06;;;;;;;8.77;2.63;;;;;;;23.01;37.78;100648.25;5006130;28;20039;-67
2022/10/02 12:43:58;;;;;;;8.77;2.50;;;;;;;23.95;36.42;100633.16;4994223;28;20046;-67
2022/10/02 12:46:36;;;;;;;10.48;2.20;;;;;;;23.72;35.04;100618.56;4995466;28;20049;-66
2022/10/02 12:49:19;;;;;;;8.05;2.30;;;;;;;21.74;38.29;100643.56;4993553;28;20042;-66
2022/10/02 12:51:53;;;;;;;7.57;2.25;;;;;;;20.59;39.89;100650.06;4994028;28;20511;-66
2022/10/02 12:54:32;;;;;;;6.05;2.10;;;;;;;19.13;43.11;100640.44;4993504;28;20049;-68
2022/10/02 13:00:17;;;;;;;10.27;2.65;;;;;;;17.11;48.26;100643.91;4991544;28;20061;-67
2022/10/02 13:03:04;;;;;;;8.43;2.63;;;;;;;16.61;49.31;100644.16;4994742;28;20413;-67
2022/10/02 13:05:42;;;;;;;11.05;3.08;;;;;;;16.12;50.43;100634.28;4996360;28;20042;-66
2022/10/02 13:08:24;;;;;;;11.07;2.45;;;;;;;16.02;50.64;100639.25;4995031;28;20042;-67
2022/10/02 13:11:01;;;;;;;19.30;2.53;;;;;;;15.93;51.40;100648.53;4993756;28;20065;-66
2022/10/02 13:13:40;;;;;;;10.57;2.65;;;;;;;15.60;53.31;100646.34;4993418;28;20039;-66
2022/10/02 13:16:26;;;;;;;20.58;3.00;;;;;;;15.67;52.94;100646.44;4994619;28;20043;-67
2022/10/02 13:19:02;;;;;;;11.95;2.67;;;;;;;15.58;53.17;100643.03;4992582;28;20410;-66
2022/10/02 13:21:52;;;;;;;12.38;2.72;;;;;;;15.73;52.40;100642.13;4992851;28;20607;-67
2022/10/02 13:24:37;;;;;;;11.13;2.13;;;;;;;16.02;51.94;100641.94;4992610;28;20053;-66
2022/10/02 13:27:18;;;;;;;9.80;2.13;;;;;;;16.08;51.59;100632.19;4993949;28;20045;-66
2022/10/02 13:30:05;;;;;;;10.73;2.38;;;;;;;15.92;51.91;100636.06;4993795;28;20042;-67
2022/10/02 13:32:34;;;;;;;14.50;2.63;;;;;;;16.26;51.63;100631.66;4994295;28;22929;-66
2022/10/02 13:35:13;;;;;;;6.88;2.30;;;;;;;16.21;51.14;100634.13;4993938;28;20054;-66
2022/10/02 13:38:06;;;;;;;14.73;2.47;;;;;;;16.34;51.09;100629.63;4994501;28;20050;-67
2022/10/02 13:41:02;;;;;;;13.25;2.72;;;;;;;15.97;51.52;100633.56;4992958;28;20054;-66
2022/10/02 13:43:51;;;;;;;15.82;2.70;;;;;;;16.17;50.22;100642.66;4988699;28;20049;-66
2022/10/02 13:46:43;;;;;;;7.47;1.40;;;;;;;15.69;49.39;100639.81;4990084;28;20132;-71
2022/10/02 13:49:12;;;;;;;10.80;2.30;;;;;;;15.74;48.94;100638.38;5000814;28;20050;-66
2022/10/02 13:51:51;;;;;;;8.35;2.20;;;;;;;15.76;48.85;100631.75;4992987;28;20046;-68
2022/10/02 13:54:52;;;;;;;11.23;2.22;;;;;;;16.03;47.33;100638.19;4995038;28;20054;-66
2022/10/02 13:57:42;;;;;;;13.23;4.10;;;;;;;16.03;48.35;100640.06;4990732;28;20076;-66
2022/10/02 14:00:22;;;;;;;14.57;2.38;;;;;;;15.71;48.97;100635.06;4992825;28;20051;-66
2022/10/02 14:03:00;;;;;;;16.02;4.70;;;;;;;15.87;48.61;100643.91;4992147;28;20042;-65
2022/10/02 14:05:48;;;;;;;12.30;2.55;;;;;;;15.98;47.68;100640.66;4991886;28;20050;-67
2022/10/02 14:08:30;;;;;;;15.48;2.80;;;;;;;15.51;49.13;100639.44;4992367;28;20042;-67
2022/10/02 14:11:34;;;;;;;12.57;1.70;;;;;;;15.42;50.31;100636.03;4992562;28;20050;-67
2022/10/02 14:14:38;;;;;;;8.85;2.05;;;;;;;15.53;49.30;100639.22;4990583;28;20050;-67
2022/10/02 14:17:35;;;;;;;10.02;1.50;;;;;;;15.07;48.99;100656.66;4991995;28;20058;-67
2022/10/02 14:20:20;;;;;;;11.55;1.45;;;;;;;15.20;48.05;100651.41;4985686;28;20053;-66
2022/10/02 14:23:01;;;;;;;5.15;1.40;;;;;;;15.28;47.01;100657.72;4992780;28;20038;-66
2022/10/02 14:25:38;;;;;;;7.63;2.00;;;;;;;15.25;47.33;100657.06;4991512;28;20050;-65
2022/10/02 14:28:17;;;;;;;3.90;1.25;;;;;;;15.19;47.41;100665.97;4992798;28;20049;-66
2022/10/02 14:30:50;;;;;;;7.90;1.42;;;;;;;14.93;47.63;100660.25;4992390;28;20046;-68
2022/10/02 14:33:49;;;;;;;7.55;1.40;;;;;;;15.20;47.42;100659.53;4992689;28;20386;-67
2022/10/02 14:36:40;;;;;;;11.18;1.83;;;;;;;15.42;47.04;100670.34;4992137;28;20481;-66
2022/10/02 14:39:29;;;;;;;10.60;1.77;;;;;;;14.89;48.11;100669.78;4991834;28;20046;-67
2022/10/02 14:42:16;;;;;;;6.00;1.30;;;;;;;15.12;47.34;100680.41;4990362;28;20046;-67
2022/10/02 14:45:20;;;;;;;11.40;1.42;;;;;;;14.96;48.04;100678.78;4991861;28;20045;-66
2022/10/02 14:48:03;;;;;;;12.82;1.52;;;;;;;15.16;47.93;100676.31;4991673;28;20072;-67
2022/10/02 14:50:35;;;;;;;12.07;1.92;;;;;;;15.03;48.17;100679.69;4992034;28;20461;-66
2022/10/02 14:53:15;;;;;;;8.18;1.55;;;;;;;15.00;48.37;100680.09;4987624;28;20046;-67
2022/10/02 14:55:48;;;;;;;8.40;1.92;;;;;;;14.98;48.79;100684.81;4997401;28;20053;-67
2022/10/02 14:58:44;;;;;;;5.35;1.65;;;;;;;14.89;49.11;100680.59;4990636;28;20042;-68
2022/10/02 15:01:21;;;;;;;9.40;1.98;;;;;;;14.82;49.39;100676.97;4990123;28;20042;-66
2022/10/02 15:04:22;;;;;;;8.93;1.92;;;;;;;14.70;49.50;100685.53;4990661;28;20046;-67
2022/10/02 15:07:10;;;;;;;8.25;2.00;;;;;;;14.75;49.41;100687.69;4989596;28;20448;-68
2022/10/02 15:10:01;;;;;;;10.18;1.85;;;;;;;14.47;50.21;100688.31;4991194;28;20053;-67
2022/10/02 15:12:34;;;;;;;7.47;1.37;;;;;;;14.74;49.54;100688.72;4990965;28;20118;-66
2022/10/02 15:15:19;;;;;;;8.82;1.38;;;;;;;14.70;49.81;100687.34;4995583;28;20056;-66
2022/10/02 15:17:56;;;;;;;8.75;1.60;;;;;;;14.78;49.70;100690.00;4987364;28;20050;-68
2022/10/02 15:20:35;;;;;;;6.75;1.70;;;;;;;14.83;49.72;100692.13;4991122;28;20050;-67
2022/10/02 15:23:06;;;;;;;11.63;1.95;;;;;;;14.71;49.86;100694.47;4990677;28;20054;-66
2022/10/02 15:25:58;;;;;;;6.30;1.73;;;;;;;14.74;49.86;100694.94;4991021;28;20057;-66
2022/10/02 15:28:30;;;;;;;8.43;1.30;;;;;;;14.21;50.75;100682.53;4990487;28;20058;-66
2022/10/02 15:31:21;;;;;;;11.73;1.88;;;;;;;14.65;49.86;100695.19;4989938;28;20077;-66
2022/10/02 15:34:17;;;;;;;7.57;1.52;;;;;;;14.60;50.39;100698.47;4990963;28;20108;-67
2022/10/02 15:37:11;;;;;;;8.10;1.58;;;;;;;14.73;49.89;100708.63;4990733;28;20050;-67
2022/10/02 15:40:07;;;;;;;6.95;1.38;;;;;;;14.40;50.91;100703.59;4990217;28;20050;-66
2022/10/02 15:42:48;;;;;;;4.63;1.50;;;;;;;14.13;51.77;100713.16;4990291;28;20504;-66
2022/10/02 15:46:03;;;;;;;14.38;2.58;;;;;;;14.18;51.75;100712.59;4991473;28;20058;-67
2022/10/02 15:48:46;;;;;;;7.53;1.73;;;;;;;14.22;51.60;100709.34;4964216;28;20062;-67